Main page
METAR-TAF:

METAR-TAF

Airports :

Oberpfaffenhofen, Germany

latitude: 48-05N, longitude: 011-17E, elevation: 600 m

Current weather observation

The report was made 16 minutes ago, at 18:50 UTC
Calm wind
Temperature 1°C
Humidity 100%
Pressure 1024 hPa
Visibility: 3500 m
Broken clouds at a height of 400 ft
mist

METAR: EDMO 171850Z 00000KT 3500 BR BKN004 01/01 Q1024

Time: 20:06 (19:06 UTC)

Forecast

The report was made 2 hours and 6 minutes ago, at 17:00 UTC
Forecast valid from 17 at 18 UTC to 18 at 03 UTC
Wind 3 kt from variable directions
Visibility: 6000 m
Scattered clouds at a height of 900 ft
Broken clouds at a height of 2000 ft
Becoming
from 17 at 18 UTC to 17 at 21 UTC
Visibility: 4000 m
Overcast at a height of 700 ft
mist

TAF: EDMO 171700Z 1718/1803 VRB03KT 6000 SCT009 BKN020 BECMG 1718/1721 4000 BR OVC007

Weather observations and forecasts of more than 4000 airports (METAR and TAF reports).

The available stations are represented by yellow and red dots on the map.

Hover mouse over dot to see the name of the station.

Then click to see weather observations and forecasts.

To change the map : click on the green buttons with a black cross to zoom in, on the green button with a dash to zoom out, or on the green arrows for adjacent maps.


METAR-TAF: